^^
Saratoga-Weather Station Historical Data
Daily Summary for July 20, 2021 Units:  English    Metric   Both
Daily Weekly Monthly Yearly Custom
  High: Low: Average:
Temperature: 60.6 °F 38.5 °F 47.1 °F
Dew Point: 48.4 °F 37.6 °F 42.6 °F
Humidity: 98% 59% 86%
Wind Speed: 10.1mph 0mph 1mph
Wind Gust: 12mph - -
Wind- - ESE
Pressure: 30 in 29.9 in -
Precipitation: 0 in    
Historical Graphs
 
 
Tabular Data for July 20, 2021
Time Temperature Dew Point Pressure Wind Wind Speed Wind Gust Humidity Rainfall Rate (Hourly) solar
00:03 43.5 °F 42.3 °F 30 in Calm     95% 0 in 0 W/m2
00:08 43.3 °F 42.1 °F 30 in Calm     95% 0 in 0 W/m2
00:13 43.2 °F 41.9 °F 30 in Calm     95% 0 in 0 W/m2
00:18 43 °F 41.7 °F 30 in Calm     95% 0 in 0 W/m2
00:23 42.8 °F 41.5 °F 30 in Calm     95% 0 in 0 W/m2
00:28 42.6 °F 41.4 °F 30 in Calm     95% 0 in 0 W/m2
00:33 42.4 °F 41.2 °F 30 in Calm     95% 0 in 0 W/m2
00:38 42.4 °F 41.2 °F 30 in Calm     95% 0 in 0 W/m2
00:43 42.4 °F 41.2 °F 30 in Calm     95% 0 in 0 W/m2
00:48 42.3 °F 41 °F 30 in Calm     95% 0 in 0 W/m2
00:53 42.3 °F 41 °F 30 in Calm     95% 0 in 0 W/m2
00:58 42.1 °F 40.8 °F 30 in Calm     95% 0 in 0 W/m2
01:03 42.1 °F 40.8 °F 30 in Calm     95% 0 in 0 W/m2
01:08 42.1 °F 40.8 °F 30 in Calm     95% 0 in 0 W/m2
01:13 41.9 °F 40.8 °F 30 in Calm     96% 0 in 0 W/m2
01:18 41.9 °F 40.8 °F 30 in Calm     96% 0 in 0 W/m2
01:23 42.1 °F 41 °F 30 in Calm     96% 0 in 0 W/m2
01:28 41.9 °F 40.8 °F 30 in Calm     96% 0 in 0 W/m2
01:33 41.9 °F 40.8 °F 30 in Calm     96% 0 in 0 W/m2
01:38 41.9 °F 40.8 °F 30 in Calm     96% 0 in 0 W/m2
01:43 41.7 °F 40.6 °F 30 in Calm     96% 0 in 0 W/m2
01:48 41.7 °F 40.6 °F 30 in Calm     96% 0 in 0 W/m2
01:53 41.7 °F 40.6 °F 30 in Calm     96% 0 in 0 W/m2
01:58 41.7 °F 40.6 °F 30 in Calm     96% 0 in 0 W/m2
02:03 41.7 °F 40.6 °F 30 in Calm     96% 0 in 0 W/m2
02:08 41.7 °F 40.6 °F 30 in Calm     96% 0 in 0 W/m2
02:13 41.5 °F 40.5 °F 30 in Calm     96% 0 in 0 W/m2
02:18 41.5 °F 40.5 °F 30 in Calm     96% 0 in 0 W/m2
02:23 41.5 °F 40.5 °F 30 in Calm     96% 0 in 0 W/m2
02:28 41.5 °F 40.5 °F 30 in Calm     96% 0 in 0 W/m2
02:33 41.5 °F 40.5 °F 30 in Calm     96% 0 in 0 W/m2
02:38 41.5 °F 40.5 °F 30 in Calm     96% 0 in 0 W/m2
02:43 41.5 °F 40.5 °F 30 in Calm     96% 0 in 0 W/m2
02:48 41.5 °F 40.5 °F 30 in Calm     96% 0 in 0 W/m2
02:53 41.5 °F 40.5 °F 30 in Calm     96% 0 in 0 W/m2
02:58 41.5 °F 40.5 °F 30 in Calm     96% 0 in 0 W/m2
03:03 41.5 °F 40.5 °F 30 in Calm     96% 0 in 0 W/m2
03:08 41.4 °F 40.3 °F 30 in Calm     96% 0 in 0 W/m2
03:13 41.4 °F 40.3 °F 30 in Calm     96% 0 in 0 W/m2
03:18 41.4 °F 40.3 °F 30 in Calm     96% 0 in 0 W/m2
03:23 41.4 °F 40.3 °F 30 in Calm     96% 0 in 0 W/m2
03:28 41.4 °F 40.3 °F 30 in Calm     96% 0 in 0 W/m2
03:33 41.4 °F 40.3 °F 30 in Calm     96% 0 in 0 W/m2
03:38 41.4 °F 40.3 °F 30 in Calm     96% 0 in 0 W/m2
03:43 41.4 °F 40.3 °F 30 in Calm     96% 0 in 0 W/m2
03:48 41.4 °F 40.3 °F 30 in Calm     96% 0 in 0 W/m2
03:53 41.2 °F 40.1 °F 30 in Calm     96% 0 in 0 W/m2
03:58 40.8 °F 39.7 °F 30 in Calm     96% 0 in 0 W/m2
04:03 40.8 °F 39.7 °F 30 in Calm     96% 0 in 0 W/m2
04:08 40.6 °F 39.6 °F 30 in Calm     96% 0 in 0 W/m2
04:13 40.5 °F 39.4 °F 30 in Calm     96% 0 in 0 W/m2
04:18 40.5 °F 39.4 °F 30 in Calm     96% 0 in 0 W/m2
04:23 40.3 °F 39.2 °F 30 in Calm     96% 0 in 0 W/m2
04:28 40.3 °F 39.2 °F 30 in Calm     96% 0 in 0 W/m2
04:33 39.9 °F 38.8 °F 30 in Calm     96% 0 in 0 W/m2
04:38 39.9 °F 38.8 °F 30 in Calm     96% 0 in 0 W/m2
04:43 39.9 °F 38.8 °F 30 in Calm     96% 0 in 0 W/m2
04:48 39.9 °F 38.8 °F 30 in Calm     96% 0 in 0 W/m2
04:53 39.7 °F 38.7 °F 30 in Calm     96% 0 in 0 W/m2
04:58 39.7 °F 38.7 °F 30 in Calm     96% 0 in 0 W/m2
05:04 39.6 °F 38.5 °F 30 in Calm     96% 0 in 0 W/m2
05:09 39.6 °F 38.5 °F 30 in Calm     96% 0 in 0 W/m2
05:14 39.6 °F 38.5 °F 30 in Calm     96% 0 in 0 W/m2
05:19 39.6 °F 38.5 °F 30 in Calm     96% 0 in 0 W/m2
05:24 39.6 °F 38.8 °F 30 in Calm     97% 0 in 0 W/m2
05:29 39.6 °F 38.8 °F 30 in Calm     97% 0 in 0 W/m2
05:34 39.6 °F 38.8 °F 30 in Calm     97% 0 in 0 W/m2
05:39 39.4 °F 38.7 °F 30 in Calm     97% 0 in 0 W/m2
05:44 39.4 °F 38.7 °F 30 in Calm     97% 0 in 0 W/m2
05:49 39.6 °F 38.8 °F 30 in Calm     97% 0 in 0 W/m2
05:54 39.6 °F 38.8 °F 30 in Calm     97% 0 in 0 W/m2
05:59 39.4 °F 38.7 °F 30 in Calm     97% 0 in 0 W/m2
06:04 39.4 °F 38.7 °F 30 in Calm     97% 0 in 0 W/m2
06:09 39.6 °F 38.8 °F 30 in North 0.9 mph 2 mph 97% 0 in 0 W/m2
06:14 39.4 °F 38.7 °F 30 in Calm     97% 0 in 0 W/m2
06:19 39.4 °F 38.7 °F 30 in NW 2 mph 2 mph 97% 0 in 0 W/m2
06:24 39.2 °F 38.1 °F 30 in Calm     96% 0 in 0 W/m2
06:29 39 °F 37.9 °F 30 in Calm   2 mph 96% 0 in 0 W/m2
06:34 39 °F 37.9 °F 30 in Calm   1 mph 96% 0 in 0 W/m2
06:39 38.8 °F 38.1 °F 30 in Calm     97% 0 in 0 W/m2
06:44 38.8 °F 38.1 °F 30 in Calm   1 mph 97% 0 in 0 W/m2
06:49 38.8 °F 38.1 °F 30 in Calm     97% 0 in 0 W/m2
06:54 38.7 °F 37.9 °F 30 in Calm     97% 0 in 0 W/m2
06:59 38.7 °F 37.6 °F 30 in Calm     96% 0 in 0 W/m2
07:04 38.7 °F 37.9 °F 30 in Calm     97% 0 in 0 W/m2
07:09 38.7 °F 37.9 °F 30 in Calm     97% 0 in 0 W/m2
07:14 38.7 °F 37.9 °F 30 in Calm     97% 0 in 0 W/m2
07:19 38.5 °F 37.8 °F 30 in Calm     97% 0 in 0 W/m2
07:24 38.5 °F 37.8 °F 30 in Calm     97% 0 in 0 W/m2
07:29 38.5 °F 37.8 °F 30 in Calm     97% 0 in 0 W/m2
07:34 38.5 °F 37.8 °F 30 in Calm     97% 0 in 0 W/m2
07:39 38.5 °F 37.8 °F 30 in Calm     97% 0 in 5 W/m2
07:44 38.7 °F 37.9 °F 30 in NW 0.9 mph 1 mph 97% 0 in 7 W/m2
07:49 38.7 °F 37.9 °F 30 in Calm     97% 0 in 9 W/m2
07:54 38.8 °F 38.1 °F 30 in Calm     97% 0 in 14 W/m2
07:59 38.8 °F 38.1 °F 30 in Calm   1 mph 97% 0 in 18 W/m2
08:04 38.8 °F 38.1 °F 30 in Calm     97% 0 in 19 W/m2
08:09 39 °F 38.3 °F 30 in Calm   1 mph 97% 0 in 23 W/m2
08:14 39 °F 38.3 °F 30 in Calm     97% 0 in 25 W/m2
08:19 39.4 °F 38.7 °F 30 in Calm     97% 0 in 26 W/m2
08:24 39.6 °F 38.8 °F 30 in Calm     97% 0 in 28 W/m2
08:29 39.6 °F 38.8 °F 30 in Calm     97% 0 in 32 W/m2
08:34 39.7 °F 39 °F 30 in Calm     97% 0 in 37 W/m2
08:39 39.9 °F 39.2 °F 30 in Calm     97% 0 in 46 W/m2
08:44 39.7 °F 39 °F 30 in Calm     97% 0 in 63 W/m2
08:49 39.7 °F 39 °F 30 in Calm     97% 0 in 79 W/m2
08:54 39.7 °F 39 °F 30 in Calm     97% 0 in 86 W/m2
08:59 39.7 °F 39 °F 30 in Calm     97% 0 in 98 W/m2
09:04 39.9 °F 39.2 °F 30 in Calm     97% 0 in 98 W/m2
09:09 40.3 °F 39.6 °F 30 in Calm     97% 0 in 91 W/m2
09:14 40.5 °F 39.7 °F 30 in Calm     97% 0 in 90 W/m2
09:19 40.8 °F 40.1 °F 30 in Calm     97% 0 in 109 W/m2
09:24 41.2 °F 40.5 °F 30 in Calm     97% 0 in 81 W/m2
09:29 41.5 °F 40.8 °F 30 in Calm     97% 0 in 88 W/m2
09:34 41.7 °F 41 °F 30 in NW 0.9 mph 1 mph 97% 0 in 105 W/m2
09:39 42.1 °F 41.4 °F 30 in Calm   1 mph 97% 0 in 93 W/m2
09:44 42.3 °F 41.7 °F 30 in Calm     98% 0 in 125 W/m2
09:49 42.4 °F 41.7 °F 30 in Calm   1 mph 97% 0 in 98 W/m2
09:54 42.6 °F 42.1 °F 30 in Calm     98% 0 in 111 W/m2
09:59 42.6 °F 42.1 °F 30 in Calm     98% 0 in 225 W/m2
10:04 43 °F 42.3 °F 30 in Calm     97% 0 in 199 W/m2
10:09 43.3 °F 42.8 °F 30 in Calm     98% 0 in 274 W/m2
10:14 43.9 °F 43.2 °F 30 in Calm     97% 0 in 230 W/m2
10:19 44.2 °F 43.5 °F 30 in Calm     97% 0 in 174 W/m2
10:24 44.6 °F 44.1 °F 30 in ENE 2 mph 2 mph 98% 0 in 214 W/m2
10:29 45.1 °F 44.6 °F 30 in ENE 2 mph 3 mph 98% 0 in 250 W/m2
10:34 45.7 °F 45.1 °F 30 in NE 2 mph 3 mph 98% 0 in 255 W/m2
10:39 46 °F 45.5 °F 30 in NE 0.9 mph 4 mph 98% 0 in 181 W/m2
10:44 46.4 °F 45.9 °F 30 in ENE 2.9 mph 5 mph 98% 0 in 135 W/m2
10:49 46.8 °F 46.2 °F 30 in NE 2 mph 2 mph 98% 0 in 153 W/m2
10:54 47.7 °F 47.1 °F 30 in East 2 mph 6 mph 98% 0 in 146 W/m2
10:59 48.6 °F 47.7 °F 30 in East 0.9 mph 4 mph 97% 0 in 253 W/m2
11:04 49.5 °F 48.4 °F 30 in ENE 2 mph 4 mph 96% 0 in 320 W/m2
11:09 50.5 °F 48.4 °F 30 in ESE 4 mph 7 mph 92% 0 in 301 W/m2
11:14 51.3 °F 47.8 °F 30 in East 2 mph 4 mph 88% 0 in 334 W/m2
11:19 51.6 °F 47.5 °F 30 in East 2 mph 6 mph 86% 0 in 295 W/m2
11:24 52.2 °F 47.1 °F 30 in SE 2 mph 4 mph 83% 0 in 223 W/m2
11:29 52.7 °F 47.3 °F 30 in ENE 0.9 mph 4 mph 82% 0 in 183 W/m2
11:34 53.1 °F 47.1 °F 30 in North 0.9 mph 4 mph 80% 0 in 200 W/m2
11:39 53.4 °F 47.1 °F 30 in ESE 2.9 mph 6 mph 79% 0 in 186 W/m2
11:44 53.8 °F 47.1 °F 30 in ESE 0.9 mph 6 mph 78% 0 in 186 W/m2
11:49 54.1 °F 47.1 °F 30 in ESE 2 mph 7 mph 77% 0 in 174 W/m2
11:54 54.3 °F 46.9 °F 30 in ESE 2 mph 5 mph 76% 0 in 272 W/m2
11:59 54.7 °F 47.3 °F 30 in East 4 mph 5 mph 76% 0 in 320 W/m2
12:04 54.9 °F 47.5 °F 30 in East 2 mph 7 mph 76% 0 in 264 W/m2
12:09 55.2 °F 47.5 °F 30 in East 4 mph 7 mph 75% 0 in 332 W/m2
12:14 55.6 °F 47.5 °F 30 in ESE 2.9 mph 9 mph 74% 0 in 367 W/m2
12:19 55.9 °F 47.5 °F 30 in ESE 4 mph 5 mph 73% 0 in 397 W/m2
12:24 56.1 °F 47.3 °F 30 in East 4 mph 8 mph 72% 0 in 371 W/m2
12:30 56.3 °F 47.5 °F 30 in East 6 mph 7 mph 72% 0 in 355 W/m2
12:35 56.5 °F 47.1 °F 30 in ESE 10.1 mph 10 mph 71% 0 in 255 W/m2
12:40 56.5 °F 46.8 °F 30 in ESE 6.9 mph 9 mph 70% 0 in 207 W/m2
12:45 56.5 °F 47.1 °F 30 in SE 8.1 mph 9 mph 71% 0 in 311 W/m2
12:50 56.5 °F 47.1 °F 30 in ESE 4 mph 7 mph 71% 0 in 223 W/m2
12:55 56.7 °F 47.7 °F 30 in ENE 2.9 mph 3 mph 72% 0 in 244 W/m2
13:00 57 °F 47.7 °F 30 in ENE 4 mph 4 mph 71% 0 in 325 W/m2
13:05 57.2 °F 47.1 °F 30 in ESE 6 mph 12 mph 69% 0 in 239 W/m2
13:10 57.4 °F 47.3 °F 30 in East 4 mph 7 mph 69% 0 in 255 W/m2
13:15 57.4 °F 47.3 °F 30 in East 2.9 mph 12 mph 69% 0 in 255 W/m2
13:20 57.6 °F 47.1 °F 30 in ESE 2 mph 7 mph 68% 0 in 167 W/m2
13:25 57.7 °F 47.3 °F 30 in ESE 6 mph 10 mph 68% 0 in 167 W/m2
13:30 57.7 °F 46.9 °F 30 in SSE 2 mph 9 mph 67% 0 in 158 W/m2
13:35 57.9 °F 46.9 °F 30 in East 4.9 mph 9 mph 67% 0 in 165 W/m2
13:40 57.9 °F 46.9 °F 30 in East 6.9 mph 7 mph 67% 0 in 149 W/m2
13:45 57.9 °F 46.9 °F 30 in NNE 0.9 mph 7 mph 67% 0 in 167 W/m2
13:50 58.3 °F 47.3 °F 30 in ENE 2.9 mph 8 mph 67% 0 in 142 W/m2
13:55 58.5 °F 47.1 °F 30 in ENE 4 mph 7 mph 66% 0 in 160 W/m2
14:00 58.6 °F 47.3 °F 30 in East 0.9 mph 7 mph 66% 0 in 151 W/m2
14:05 58.8 °F 47.1 °F 30 in East 8.9 mph 9 mph 65% 0 in 171 W/m2
14:10 59 °F 47.3 °F 30 in ESE 2 mph 7 mph 65% 0 in 237 W/m2
14:15 59.2 °F 47.5 °F 29.9 in ENE 2 mph 8 mph 65% 0 in 155 W/m2
14:20 59.5 °F 47.8 °F 29.9 in NE 4 mph 6 mph 65% 0 in 160 W/m2
14:25 59.5 °F 47.3 °F 29.9 in East 2.9 mph 9 mph 64% 0 in 162 W/m2
14:30 59.7 °F 47.5 °F 29.9 in ESE 4 mph 10 mph 64% 0 in 141 W/m2
14:35 59.7 °F 47.1 °F 29.9 in ESE 6.9 mph 8 mph 63% 0 in 197 W/m2
14:40 59.7 °F 47.1 °F 29.9 in ENE 4 mph 8 mph 63% 0 in 116 W/m2
14:45 59.7 °F 47.1 °F 29.9 in SSE 2 mph 7 mph 63% 0 in 100 W/m2
14:50 59.7 °F 47.1 °F 29.9 in ENE 4 mph 7 mph 63% 0 in 114 W/m2
14:55 59.7 °F 47.1 °F 29.9 in ESE 4 mph 7 mph 63% 0 in 104 W/m2
15:00 59.7 °F 47.1 °F 29.9 in East 4 mph 9 mph 63% 0 in 109 W/m2
15:05 59.7 °F 47.1 °F 29.9 in East 2.9 mph 8 mph 63% 0 in 114 W/m2
15:10 59.9 °F 47.3 °F 29.9 in ESE 2.9 mph 6 mph 63% 0 in 142 W/m2
15:15 59.9 °F 47.3 °F 29.9 in South 0.9 mph 9 mph 63% 0 in 120 W/m2
15:20 59.9 °F 47.3 °F 29.9 in ESE 2.9 mph 5 mph 63% 0 in 116 W/m2
15:25 59.9 °F 47.3 °F 29.9 in SE 2 mph 4 mph 63% 0 in 113 W/m2
15:30 60.1 °F 46.6 °F 29.9 in ESE 4 mph 7 mph 61% 0 in 107 W/m2
15:35 60.1 °F 46.9 °F 29.9 in ENE 4 mph 4 mph 62% 0 in 114 W/m2
15:40 60.3 °F 47.1 °F 29.9 in ESE 6 mph 7 mph 62% 0 in 132 W/m2
15:45 60.4 °F 47.3 °F 29.9 in ESE 9 mph 9 mph 62% 0 in 134 W/m2
15:50 60.4 °F 47.3 °F 29.9 in ESE 0.9 mph 4 mph 62% 0 in 146 W/m2
15:55 60.4 °F 47.3 °F 29.9 in East 0.9 mph 4 mph 62% 0 in 137 W/m2
16:00 60.4 °F 46.9 °F 29.9 in SE 2 mph 6 mph 61% 0 in 134 W/m2
16:05 60.6 °F 46.6 °F 29.9 in ENE 2 mph 7 mph 60% 0 in 116 W/m2
16:10 60.6 °F 46.6 °F 29.9 in SE 6.9 mph 7 mph 60% 0 in 109 W/m2
16:15 60.6 °F 46.6 °F 29.9 in SSE 4.9 mph 9 mph 60% 0 in 105 W/m2
16:20 60.4 °F 46.9 °F 29.9 in NE 2.9 mph 7 mph 61% 0 in 107 W/m2
16:25 60.6 °F 46.6 °F 29.9 in ENE 2 mph 8 mph 60% 0 in 155 W/m2
16:30 60.6 °F 47.1 °F 29.9 in East 0.9 mph 3 mph 61% 0 in 90 W/m2
16:35 60.4 °F 47.3 °F 29.9 in ESE 2 mph 4 mph 62% 0 in 76 W/m2
16:40 60.3 °F 48 °F 29.9 in ESE 0.9 mph 2 mph 64% 0 in 67 W/m2
16:45 59.9 °F 46.8 °F 29.9 in East 6 mph 9 mph 62% 0 in 65 W/m2
16:50 60.1 °F 46.6 °F 29.9 in ENE 2.9 mph 7 mph 61% 0 in 60 W/m2
16:55 60.3 °F 45.9 °F 29.9 in ESE 4 mph 9 mph 59% 0 in 54 W/m2
17:01 60.3 °F 46.4 °F 29.9 in ESE 0.9 mph 3 mph 60% 0 in 46 W/m2
17:06 59.7 °F 47.1 °F 29.9 in Calm   5 mph 63% 0 in 46 W/m2
17:11 59.2 °F 47.5 °F 29.9 in Calm     65% 0 in 42 W/m2
17:16 58.5 °F 47.1 °F 29.9 in Calm     66% 0 in 33 W/m2
17:21 57.6 °F 47.1 °F 29.9 in Calm     68% 0 in 32 W/m2
17:26 56.8 °F 46.8 °F 29.9 in Calm   2 mph 69% 0 in 26 W/m2
17:31 56.3 °F 46.2 °F 29.9 in Calm     69% 0 in 23 W/m2
17:36 55.8 °F 46.6 °F 29.9 in Calm   2 mph 71% 0 in 19 W/m2
17:41 55.2 °F 46.4 °F 29.9 in Calm     72% 0 in 16 W/m2
17:46 54.9 °F 46 °F 29.9 in Calm     72% 0 in 14 W/m2
17:51 54.3 °F 45.9 °F 29.9 in Calm     73% 0 in 11 W/m2
17:56 53.8 °F 45.7 °F 29.9 in SE 0.9 mph 2 mph 74% 0 in 5 W/m2
18:01 53.2 °F 45.1 °F 29.9 in SE 0.9 mph 1 mph 74% 0 in 0 W/m2
18:06 52.7 °F 45 °F 29.9 in SE 2 mph 2 mph 75% 0 in 0 W/m2
18:11 52.2 °F 44.8 °F 29.9 in Calm   2 mph 76% 0 in 0 W/m2
18:16 51.8 °F 44.8 °F 29.9 in Calm     77% 0 in 0 W/m2
18:21 51.4 °F 44.8 °F 29.9 in Calm   2 mph 78% 0 in 0 W/m2
18:26 51.1 °F 44.4 °F 29.9 in Calm     78% 0 in 0 W/m2
18:31 50.5 °F 44.2 °F 29.9 in Calm     79% 0 in 0 W/m2
18:36 50.4 °F 44.4 °F 29.9 in Calm     80% 0 in 0 W/m2
18:41 49.8 °F 43.9 °F 29.9 in Calm   1 mph 80% 0 in 0 W/m2
18:46 49.6 °F 44.1 °F 29.9 in SE 0.9 mph 2 mph 81% 0 in 0 W/m2
18:51 49.1 °F 43.5 °F 29.9 in Calm   2 mph 81% 0 in 0 W/m2
18:56 48.7 °F 43.5 °F 29.9 in Calm   1 mph 82% 0 in 0 W/m2
19:01 48.4 °F 43.5 °F 29.9 in Calm     83% 0 in 0 W/m2
19:06 48.2 °F 43.5 °F 29.9 in Calm     84% 0 in 0 W/m2
19:11 48 °F 43.3 °F 29.9 in Calm     84% 0 in 0 W/m2
19:16 47.8 °F 43.2 °F 29.9 in Calm     84% 0 in 0 W/m2
19:21 47.7 °F 43.3 °F 29.9 in SE 0.9 mph 1 mph 85% 0 in 0 W/m2
19:26 47.5 °F 43.2 °F 29.9 in Calm     85% 0 in 0 W/m2
19:31 47.3 °F 43 °F 29.9 in Calm     85% 0 in 0 W/m2
19:36 47.1 °F 43.2 °F 29.9 in Calm   2 mph 86% 0 in 0 W/m2
19:41 47.1 °F 43.2 °F 29.9 in Calm     86% 0 in 0 W/m2
19:46 47.1 °F 43.2 °F 29.9 in Calm   1 mph 86% 0 in 0 W/m2
19:51 47.1 °F 43.2 °F 29.9 in Calm     86% 0 in 0 W/m2
19:56 46.9 °F 43 °F 29.9 in Calm     86% 0 in 0 W/m2
20:01 46.8 °F 42.8 °F 29.9 in Calm     86% 0 in 0 W/m2
20:06 46.6 °F 42.6 °F 29.9 in Calm     86% 0 in 0 W/m2
20:11 46.4 °F 42.4 °F 29.9 in Calm     86% 0 in 0 W/m2
20:16 46.2 °F 42.6 °F 29.9 in Calm     87% 0 in 0 W/m2
20:21 46.2 °F 42.6 °F 29.9 in Calm     87% 0 in 0 W/m2
20:26 46.2 °F 42.6 °F 29.9 in Calm     87% 0 in 0 W/m2
20:31 46.2 °F 42.6 °F 29.9 in Calm     87% 0 in 0 W/m2
20:36 46 °F 42.4 °F 29.9 in Calm     87% 0 in 0 W/m2
20:41 45.9 °F 42.3 °F 29.9 in Calm     87% 0 in 0 W/m2
20:46 45.7 °F 42.1 °F 29.9 in Calm     87% 0 in 0 W/m2
20:51 45.5 °F 42.1 °F 29.9 in Calm     88% 0 in 0 W/m2
20:56 45.3 °F 41.9 °F 29.9 in Calm     88% 0 in 0 W/m2
21:01 45.3 °F 41.9 °F 29.9 in Calm     88% 0 in 0 W/m2
21:07 45.3 °F 41.9 °F 29.9 in Calm     88% 0 in 0 W/m2
21:12 45.1 °F 42.1 °F 29.9 in Calm     89% 0 in 0 W/m2
21:17 45.1 °F 42.1 °F 29.9 in Calm     89% 0 in 0 W/m2
21:22 45 °F 41.9 °F 29.9 in Calm     89% 0 in 0 W/m2
21:27 44.8 °F 41.7 °F 29.9 in Calm     89% 0 in 0 W/m2
21:32 44.8 °F 41.7 °F 29.9 in Calm     89% 0 in 0 W/m2
21:37 44.6 °F 41.5 °F 29.9 in Calm     89% 0 in 0 W/m2
21:46 44.2 °F 41.2 °F 29.9 in Calm     89% 0 in 0 W/m2
21:51 44.2 °F 41.5 °F 29.9 in Calm     90% 0 in 0 W/m2
21:56 44.4 °F 41.7 °F 29.9 in Calm     90% 0 in 0 W/m2
22:01 44.2 °F 41.5 °F 30 in Calm     90% 0 in 0 W/m2
22:20 43.5 °F 40.8 °F 30 in Calm     90% 0 in 0 W/m2
22:26 43.3 °F 40.8 °F 29.9 in Calm     91% 0 in 0 W/m2
22:31 43.5 °F 41 °F 30 in Calm     91% 0 in 0 W/m2
22:36 43.5 °F 41 °F 29.9 in Calm     91% 0 in 0 W/m2
22:41 43.3 °F 40.8 °F 30 in Calm     91% 0 in 0 W/m2
22:46 43.2 °F 40.6 °F 30 in Calm     91% 0 in 0 W/m2
22:51 43 °F 40.5 °F 30 in Calm     91% 0 in 0 W/m2
22:56 42.6 °F 40.1 °F 30 in Calm     91% 0 in 0 W/m2
23:15 42.3 °F 40.1 °F 30 in Calm     92% 0 in 0 W/m2
23:20 42.3 °F 40.1 °F 30 in Calm     92% 0 in 0 W/m2
23:25 42.1 °F 39.9 °F 30 in Calm     92% 0 in 0 W/m2
23:30 41.7 °F 39.6 °F 30 in Calm     92% 0 in 0 W/m2
23:36 41.7 °F 39.6 °F 30 in Calm     92% 0 in 0 W/m2
23:41 41.5 °F 39.4 °F 30 in Calm     92% 0 in 0 W/m2
23:46 41.5 °F 39.4 °F 30 in Calm     92% 0 in 0 W/m2
23:51 41.4 °F 39.6 °F 30 in Calm     93% 0 in 0 W/m2
23:56 41.5 °F 39.7 °F 30 in Calm     93% 0 in 0 W/m2
Juneau County Weather
Compliments of Weather Underground - 4 mb